sensor_id;sensor_type;location;lat;lon;timestamp;P1;durP1;ratioP1;P2;durP2;ratioP2
44126;SDS011;29786;50.798;7.302;2023-01-26T00:00:29;88.1;;;28.9;;
44126;SDS011;29786;50.798;7.302;2023-01-26T00:01:29;120.1;;;34;;
44126;SDS011;29786;50.798;7.302;2023-01-26T00:02:29;88.3;;;28;;
44126;SDS011;29786;50.798;7.302;2023-01-26T00:03:29;77.4;;;27.7;;
44126;SDS011;29786;50.798;7.302;2023-01-26T00:04:29;81;;;27.3;;
44126;SDS011;29786;50.798;7.302;2023-01-26T00:05:29;77.7;;;27.2;;
44126;SDS011;29786;50.798;7.302;2023-01-26T00:06:29;94.2;;;30.4;;
44126;SDS011;29786;50.798;7.302;2023-01-26T00:07:29;99.8;;;28.9;;
44126;SDS011;29786;50.798;7.302;2023-01-26T00:08:29;69.3;;;26.2;;
44126;SDS011;29786;50.798;7.302;2023-01-26T00:09:29;78.3;;;27.5;;
44126;SDS011;29786;50.798;7.302;2023-01-26T00:10:29;70.1;;;25.7;;
44126;SDS011;29786;50.798;7.302;2023-01-26T00:11:29;85.3;;;28;;
44126;SDS011;29786;50.798;7.302;2023-01-26T00:12:30;122.8;;;29.4;;
44126;SDS011;29786;50.798;7.302;2023-01-26T00:13:31;80.3;;;27.8;;
44126;SDS011;29786;50.798;7.302;2023-01-26T00:14:30;118.2;;;27.6;;
44126;SDS011;29786;50.798;7.302;2023-01-26T00:15:31;96;;;27.8;;
44126;SDS011;29786;50.798;7.302;2023-01-26T00:16:29;171.6;;;31.9;;
44126;SDS011;29786;50.798;7.302;2023-01-26T00:17:29;131.6;;;31.2;;
44126;SDS011;29786;50.798;7.302;2023-01-26T00:18:29;112.4;;;33.6;;
44126;SDS011;29786;50.798;7.302;2023-01-26T00:19:29;130;;;34.9;;
44126;SDS011;29786;50.798;7.302;2023-01-26T00:20:29;114.8;;;32.7;;
44126;SDS011;29786;50.798;7.302;2023-01-26T00:21:29;131.5;;;38.9;;
44126;SDS011;29786;50.798;7.302;2023-01-26T00:22:29;109.4;;;34.1;;
44126;SDS011;29786;50.798;7.302;2023-01-26T00:23:29;104.1;;;33.8;;
44126;SDS011;29786;50.798;7.302;2023-01-26T00:24:29;114.2;;;32;;
44126;SDS011;29786;50.798;7.302;2023-01-26T00:25:28;192.3;;;39.6;;
44126;SDS011;29786;50.798;7.302;2023-01-26T00:26:29;94.9;;;28.4;;
44126;SDS011;29786;50.798;7.302;2023-01-26T00:27:31;125.8;;;31.4;;
44126;SDS011;29786;50.798;7.302;2023-01-26T00:28:28;230;;;38.7;;
44126;SDS011;29786;50.798;7.302;2023-01-26T00:29:29;305.3;;;39.7;;
44126;SDS011;29786;50.798;7.302;2023-01-26T00:30:28;255.4;;;40.2;;
44126;SDS011;29786;50.798;7.302;2023-01-26T00:31:29;273.3;;;41;;
44126;SDS011;29786;50.798;7.302;2023-01-26T00:32:29;414;;;46.2;;
44126;SDS011;29786;50.798;7.302;2023-01-26T00:33:29;144.8;;;37;;
44126;SDS011;29786;50.798;7.302;2023-01-26T00:34:28;74.3;;;27.1;;
44126;SDS011;29786;50.798;7.302;2023-01-26T00:35:29;135.4;;;31.1;;
44126;SDS011;29786;50.798;7.302;2023-01-26T00:36:29;480;;;55.7;;
44126;SDS011;29786;50.798;7.302;2023-01-26T00:37:29;442.2;;;49.3;;
44126;SDS011;29786;50.798;7.302;2023-01-26T00:38:29;650.4;;;62.9;;
44126;SDS011;29786;50.798;7.302;2023-01-26T00:39:29;255.9;;;43.2;;
44126;SDS011;29786;50.798;7.302;2023-01-26T00:40:29;163.3;;;32.9;;
44126;SDS011;29786;50.798;7.302;2023-01-26T00:41:29;67.7;;;26.2;;
44126;SDS011;29786;50.798;7.302;2023-01-26T00:42:29;77.3;;;27.8;;
44126;SDS011;29786;50.798;7.302;2023-01-26T00:43:29;253.3;;;39.7;;
44126;SDS011;29786;50.798;7.302;2023-01-26T00:44:29;258.5;;;44.9;;
44126;SDS011;29786;50.798;7.302;2023-01-26T00:45:29;152.5;;;36.5;;
44126;SDS011;29786;50.798;7.302;2023-01-26T00:46:29;93;;;28.9;;
44126;SDS011;29786;50.798;7.302;2023-01-26T00:47:29;310.5;;;45.2;;
44126;SDS011;29786;50.798;7.302;2023-01-26T00:48:29;291.7;;;44.8;;
44126;SDS011;29786;50.798;7.302;2023-01-26T00:49:29;216.9;;;34.5;;
44126;SDS011;29786;50.798;7.302;2023-01-26T00:50:28;253.1;;;41.2;;
44126;SDS011;29786;50.798;7.302;2023-01-26T00:51:29;168.8;;;40.9;;
44126;SDS011;29786;50.798;7.302;2023-01-26T00:52:29;166.3;;;35.5;;
44126;SDS011;29786;50.798;7.302;2023-01-26T00:53:29;226.4;;;43.3;;
44126;SDS011;29786;50.798;7.302;2023-01-26T00:54:29;161.7;;;33.1;;
44126;SDS011;29786;50.798;7.302;2023-01-26T00:55:29;167.2;;;33.3;;
44126;SDS011;29786;50.798;7.302;2023-01-26T00:56:29;172.4;;;34.5;;
44126;SDS011;29786;50.798;7.302;2023-01-26T00:57:29;106.1;;;32.1;;
44126;SDS011;29786;50.798;7.302;2023-01-26T00:58:29;92.9;;;29.9;;
44126;SDS011;29786;50.798;7.302;2023-01-26T00:59:29;74;;;27.8;;
44126;SDS011;29786;50.798;7.302;2023-01-26T01:00:30;75.2;;;26.7;;
44126;SDS011;29786;50.798;7.302;2023-01-26T01:01:29;71.2;;;27.1;;
44126;SDS011;29786;50.798;7.302;2023-01-26T01:02:28;83.8;;;28.5;;
44126;SDS011;29786;50.798;7.302;2023-01-26T01:03:29;73.4;;;26;;
44126;SDS011;29786;50.798;7.302;2023-01-26T01:04:29;63.9;;;25.1;;
44126;SDS011;29786;50.798;7.302;2023-01-26T01:05:29;91.5;;;30;;
44126;SDS011;29786;50.798;7.302;2023-01-26T01:06:28;74.5;;;26.8;;
44126;SDS011;29786;50.798;7.302;2023-01-26T01:07:29;123.9;;;31.8;;
44126;SDS011;29786;50.798;7.302;2023-01-26T01:08:29;153.4;;;32.7;;
44126;SDS011;29786;50.798;7.302;2023-01-26T01:09:29;128;;;29.8;;
44126;SDS011;29786;50.798;7.302;2023-01-26T01:10:29;100.6;;;30.5;;
44126;SDS011;29786;50.798;7.302;2023-01-26T01:11:28;74.1;;;26.5;;
44126;SDS011;29786;50.798;7.302;2023-01-26T01:12:28;90.8;;;29.8;;
44126;SDS011;29786;50.798;7.302;2023-01-26T01:13:28;84.4;;;28.1;;
44126;SDS011;29786;50.798;7.302;2023-01-26T01:14:28;64;;;24.6;;
44126;SDS011;29786;50.798;7.302;2023-01-26T01:15:29;65.5;;;24.9;;
44126;SDS011;29786;50.798;7.302;2023-01-26T01:16:29;98.8;;;28.8;;
44126;SDS011;29786;50.798;7.302;2023-01-26T01:17:29;61;;;23.7;;
44126;SDS011;29786;50.798;7.302;2023-01-26T01:18:28;68.3;;;26.1;;
44126;SDS011;29786;50.798;7.302;2023-01-26T01:19:29;67.6;;;26.2;;
44126;SDS011;29786;50.798;7.302;2023-01-26T01:20:29;78.4;;;26.7;;
44126;SDS011;29786;50.798;7.302;2023-01-26T01:21:29;67.2;;;24.8;;
44126;SDS011;29786;50.798;7.302;2023-01-26T01:22:29;125.9;;;30.3;;
44126;SDS011;29786;50.798;7.302;2023-01-26T01:23:28;129.5;;;31.7;;
44126;SDS011;29786;50.798;7.302;2023-01-26T01:24:29;70.7;;;27.5;;
44126;SDS011;29786;50.798;7.302;2023-01-26T01:25:28;83.4;;;25.2;;
44126;SDS011;29786;50.798;7.302;2023-01-26T01:26:28;60.5;;;23.4;;
44126;SDS011;29786;50.798;7.302;2023-01-26T01:27:30;82.9;;;25.5;;
44126;SDS011;29786;50.798;7.302;2023-01-26T01:28:29;116.3;;;28.8;;
44126;SDS011;29786;50.798;7.302;2023-01-26T01:29:29;74.1;;;25;;
44126;SDS011;29786;50.798;7.302;2023-01-26T01:30:29;85.6;;;26.3;;
44126;SDS011;29786;50.798;7.302;2023-01-26T01:31:29;100.9;;;28.6;;
44126;SDS011;29786;50.798;7.302;2023-01-26T01:32:29;105;;;28.3;;
44126;SDS011;29786;50.798;7.302;2023-01-26T01:33:29;279.6;;;39.4;;
44126;SDS011;29786;50.798;7.302;2023-01-26T01:34:29;67.4;;;24.2;;
44126;SDS011;29786;50.798;7.302;2023-01-26T01:35:29;228.5;;;34.4;;
44126;SDS011;29786;50.798;7.302;2023-01-26T01:36:29;158.9;;;32.8;;
44126;SDS011;29786;50.798;7.302;2023-01-26T01:37:29;79.3;;;27.1;;
44126;SDS011;29786;50.798;7.302;2023-01-26T01:38:29;75.9;;;26.9;;
44126;SDS011;29786;50.798;7.302;2023-01-26T01:39:29;80.8;;;28.5;;
44126;SDS011;29786;50.798;7.302;2023-01-26T01:40:28;93.2;;;29.2;;
44126;SDS011;29786;50.798;7.302;2023-01-26T01:41:29;70.9;;;25.2;;
44126;SDS011;29786;50.798;7.302;2023-01-26T01:42:29;65.5;;;24.3;;
44126;SDS011;29786;50.798;7.302;2023-01-26T01:43:29;59.8;;;24.3;;
44126;SDS011;29786;50.798;7.302;2023-01-26T01:44:28;66.2;;;25.7;;
44126;SDS011;29786;50.798;7.302;2023-01-26T01:45:38;65.8;;;25.1;;
44126;SDS011;29786;50.798;7.302;2023-01-26T01:46:31;70;;;26.7;;
44126;SDS011;29786;50.798;7.302;2023-01-26T01:47:29;69.9;;;26;;
44126;SDS011;29786;50.798;7.302;2023-01-26T01:48:34;70.2;;;25.9;;
44126;SDS011;29786;50.798;7.302;2023-01-26T01:50:00;69;;;26.5;;
44126;SDS011;29786;50.798;7.302;2023-01-26T01:50:30;68.8;;;26.4;;
44126;SDS011;29786;50.798;7.302;2023-01-26T01:51:30;68.1;;;26.5;;
44126;SDS011;29786;50.798;7.302;2023-01-26T01:52:30;74.2;;;27.9;;
44126;SDS011;29786;50.798;7.302;2023-01-26T01:53:31;68.1;;;26.2;;
44126;SDS011;29786;50.798;7.302;2023-01-26T01:54:33;69.4;;;26.8;;
44126;SDS011;29786;50.798;7.302;2023-01-26T01:55:29;64.9;;;25.6;;
44126;SDS011;29786;50.798;7.302;2023-01-26T01:56:29;66.1;;;27.2;;
44126;SDS011;29786;50.798;7.302;2023-01-26T01:57:30;74;;;27.2;;
44126;SDS011;29786;50.798;7.302;2023-01-26T01:58:29;73.9;;;27.3;;
44126;SDS011;29786;50.798;7.302;2023-01-26T01:59:29;77.1;;;26.5;;
44126;SDS011;29786;50.798;7.302;2023-01-26T02:00:29;109.3;;;29.3;;
44126;SDS011;29786;50.798;7.302;2023-01-26T02:01:29;86.2;;;29.7;;
44126;SDS011;29786;50.798;7.302;2023-01-26T02:02:29;110.4;;;31;;
44126;SDS011;29786;50.798;7.302;2023-01-26T02:03:29;104.9;;;31.1;;
44126;SDS011;29786;50.798;7.302;2023-01-26T02:04:28;110.2;;;33.1;;
44126;SDS011;29786;50.798;7.302;2023-01-26T02:05:30;97.4;;;30.8;;
44126;SDS011;29786;50.798;7.302;2023-01-26T02:07:01;108.3;;;32.5;;
44126;SDS011;29786;50.798;7.302;2023-01-26T02:07:28;91.4;;;30.9;;
44126;SDS011;29786;50.798;7.302;2023-01-26T02:08:30;81.2;;;28.7;;
44126;SDS011;29786;50.798;7.302;2023-01-26T02:09:31;73.9;;;26.2;;
44126;SDS011;29786;50.798;7.302;2023-01-26T02:10:29;70;;;25;;
44126;SDS011;29786;50.798;7.302;2023-01-26T02:11:32;77.4;;;27.1;;
44126;SDS011;29786;50.798;7.302;2023-01-26T02:12:29;84;;;28.1;;
44126;SDS011;29786;50.798;7.302;2023-01-26T02:13:29;122.8;;;32;;
44126;SDS011;29786;50.798;7.302;2023-01-26T02:14:27;109.5;;;32.3;;
44126;SDS011;29786;50.798;7.302;2023-01-26T02:15:29;122.5;;;31;;
44126;SDS011;29786;50.798;7.302;2023-01-26T02:16:28;135;;;32.9;;
44126;SDS011;29786;50.798;7.302;2023-01-26T02:17:29;136;;;32;;
44126;SDS011;29786;50.798;7.302;2023-01-26T02:18:29;125.7;;;33;;
44126;SDS011;29786;50.798;7.302;2023-01-26T02:19:48;170.9;;;34.3;;
44126;SDS011;29786;50.798;7.302;2023-01-26T02:20:32;220.9;;;39.4;;
44126;SDS011;29786;50.798;7.302;2023-01-26T02:21:29;184.5;;;34.6;;
44126;SDS011;29786;50.798;7.302;2023-01-26T02:22:37;152.3;;;32.6;;
44126;SDS011;29786;50.798;7.302;2023-01-26T02:23:40;167.7;;;34.4;;
44126;SDS011;29786;50.798;7.302;2023-01-26T02:24:31;114.4;;;28.6;;
44126;SDS011;29786;50.798;7.302;2023-01-26T02:26:03;242.9;;;39.2;;
44126;SDS011;29786;50.798;7.302;2023-01-26T02:26:30;253.8;;;38.5;;
44126;SDS011;29786;50.798;7.302;2023-01-26T02:27:29;180.1;;;36.2;;
44126;SDS011;29786;50.798;7.302;2023-01-26T02:28:28;284.9;;;42.3;;
44126;SDS011;29786;50.798;7.302;2023-01-26T02:29:29;179.2;;;33.3;;
44126;SDS011;29786;50.798;7.302;2023-01-26T02:30:28;286.2;;;42;;
44126;SDS011;29786;50.798;7.302;2023-01-26T02:31:29;226.9;;;39.4;;
44126;SDS011;29786;50.798;7.302;2023-01-26T02:32:29;252.4;;;39.7;;
44126;SDS011;29786;50.798;7.302;2023-01-26T02:33:29;262.2;;;41;;
44126;SDS011;29786;50.798;7.302;2023-01-26T02:34:29;240.6;;;39.7;;
44126;SDS011;29786;50.798;7.302;2023-01-26T02:35:28;221.1;;;41.5;;
44126;SDS011;29786;50.798;7.302;2023-01-26T02:36:29;245.8;;;40.4;;
44126;SDS011;29786;50.798;7.302;2023-01-26T02:37:29;224.8;;;40.3;;
44126;SDS011;29786;50.798;7.302;2023-01-26T02:38:34;244.1;;;42.4;;
44126;SDS011;29786;50.798;7.302;2023-01-26T02:39:42;336.1;;;45.6;;
44126;SDS011;29786;50.798;7.302;2023-01-26T02:40:32;362.7;;;46.7;;
44126;SDS011;29786;50.798;7.302;2023-01-26T02:41:29;364;;;45.7;;
44126;SDS011;29786;50.798;7.302;2023-01-26T02:42:29;298.3;;;44.8;;
44126;SDS011;29786;50.798;7.302;2023-01-26T02:43:29;290.5;;;41.2;;
44126;SDS011;29786;50.798;7.302;2023-01-26T02:44:29;201.1;;;38.7;;
44126;SDS011;29786;50.798;7.302;2023-01-26T02:45:29;243;;;40;;
44126;SDS011;29786;50.798;7.302;2023-01-26T02:46:29;266.8;;;44.5;;
44126;SDS011;29786;50.798;7.302;2023-01-26T02:47:29;223.6;;;40.9;;
44126;SDS011;29786;50.798;7.302;2023-01-26T02:48:29;202;;;41.7;;
44126;SDS011;29786;50.798;7.302;2023-01-26T02:49:29;192.8;;;39.9;;
44126;SDS011;29786;50.798;7.302;2023-01-26T02:50:29;217.5;;;41.6;;
44126;SDS011;29786;50.798;7.302;2023-01-26T02:51:29;166.7;;;38.4;;
44126;SDS011;29786;50.798;7.302;2023-01-26T02:52:29;163.4;;;39.6;;
44126;SDS011;29786;50.798;7.302;2023-01-26T02:53:29;189.3;;;39.7;;
44126;SDS011;29786;50.798;7.302;2023-01-26T02:54:29;157.6;;;37.4;;
44126;SDS011;29786;50.798;7.302;2023-01-26T02:55:29;236.1;;;45.9;;
44126;SDS011;29786;50.798;7.302;2023-01-26T02:56:29;157.4;;;37.3;;
44126;SDS011;29786;50.798;7.302;2023-01-26T02:57:29;196.2;;;39.9;;
44126;SDS011;29786;50.798;7.302;2023-01-26T02:58:28;170.2;;;40.3;;
44126;SDS011;29786;50.798;7.302;2023-01-26T02:59:28;177.7;;;40.2;;
44126;SDS011;29786;50.798;7.302;2023-01-26T03:00:30;162.9;;;38.8;;
44126;SDS011;29786;50.798;7.302;2023-01-26T03:01:29;183.1;;;40.6;;
44126;SDS011;29786;50.798;7.302;2023-01-26T03:02:29;203.1;;;39.9;;
44126;SDS011;29786;50.798;7.302;2023-01-26T03:03:29;152.3;;;38.8;;
44126;SDS011;29786;50.798;7.302;2023-01-26T03:04:29;163.4;;;38.1;;
44126;SDS011;29786;50.798;7.302;2023-01-26T03:05:29;181.3;;;41;;
44126;SDS011;29786;50.798;7.302;2023-01-26T03:06:29;174.4;;;39.6;;
44126;SDS011;29786;50.798;7.302;2023-01-26T03:07:29;207.4;;;42.5;;
44126;SDS011;29786;50.798;7.302;2023-01-26T03:08:29;141.3;;;37.4;;
44126;SDS011;29786;50.798;7.302;2023-01-26T03:09:29;131;;;34.7;;
44126;SDS011;29786;50.798;7.302;2023-01-26T03:10:29;150.7;;;37.6;;
44126;SDS011;29786;50.798;7.302;2023-01-26T03:11:29;120.6;;;34;;
44126;SDS011;29786;50.798;7.302;2023-01-26T03:12:29;130.8;;;35.5;;
44126;SDS011;29786;50.798;7.302;2023-01-26T03:13:29;130.6;;;33.6;;
44126;SDS011;29786;50.798;7.302;2023-01-26T03:14:29;106;;;31.7;;
44126;SDS011;29786;50.798;7.302;2023-01-26T03:15:29;159.7;;;38.7;;
44126;SDS011;29786;50.798;7.302;2023-01-26T03:16:29;122.1;;;34.2;;
44126;SDS011;29786;50.798;7.302;2023-01-26T03:17:29;165.4;;;36.4;;
44126;SDS011;29786;50.798;7.302;2023-01-26T03:18:28;141.2;;;35.8;;
44126;SDS011;29786;50.798;7.302;2023-01-26T03:19:29;122.5;;;34.5;;
44126;SDS011;29786;50.798;7.302;2023-01-26T03:20:29;113.5;;;31.2;;
44126;SDS011;29786;50.798;7.302;2023-01-26T03:21:28;117.1;;;31.9;;
44126;SDS011;29786;50.798;7.302;2023-01-26T03:22:29;99.5;;;29.6;;
44126;SDS011;29786;50.798;7.302;2023-01-26T03:23:29;116.4;;;31.5;;
44126;SDS011;29786;50.798;7.302;2023-01-26T03:24:29;108.2;;;32.2;;
44126;SDS011;29786;50.798;7.302;2023-01-26T03:25:29;137;;;36.1;;
44126;SDS011;29786;50.798;7.302;2023-01-26T03:26:28;114.2;;;31.6;;
44126;SDS011;29786;50.798;7.302;2023-01-26T03:27:32;94.9;;;29.5;;
44126;SDS011;29786;50.798;7.302;2023-01-26T03:28:29;99.8;;;30.5;;
44126;SDS011;29786;50.798;7.302;2023-01-26T03:29:29;136.4;;;35.6;;
44126;SDS011;29786;50.798;7.302;2023-01-26T03:30:28;124.1;;;34.7;;
44126;SDS011;29786;50.798;7.302;2023-01-26T03:31:29;133.2;;;35.4;;
44126;SDS011;29786;50.798;7.302;2023-01-26T03:32:29;114.2;;;32.8;;
44126;SDS011;29786;50.798;7.302;2023-01-26T03:33:29;116.2;;;34.5;;
44126;SDS011;29786;50.798;7.302;2023-01-26T03:34:29;130.5;;;35.2;;
44126;SDS011;29786;50.798;7.302;2023-01-26T03:35:29;114.9;;;34.2;;
44126;SDS011;29786;50.798;7.302;2023-01-26T03:36:28;89.3;;;29.1;;
44126;SDS011;29786;50.798;7.302;2023-01-26T03:37:29;165.7;;;36.9;;
44126;SDS011;29786;50.798;7.302;2023-01-26T03:38:29;104;;;30.4;;
44126;SDS011;29786;50.798;7.302;2023-01-26T03:39:29;87.1;;;30;;
44126;SDS011;29786;50.798;7.302;2023-01-26T03:40:29;102.4;;;30.2;;
44126;SDS011;29786;50.798;7.302;2023-01-26T03:41:29;155.6;;;36.1;;
44126;SDS011;29786;50.798;7.302;2023-01-26T03:42:28;147.4;;;35.5;;
44126;SDS011;29786;50.798;7.302;2023-01-26T03:43:29;92.7;;;30.1;;
44126;SDS011;29786;50.798;7.302;2023-01-26T03:44:27;114.5;;;34.3;;
44126;SDS011;29786;50.798;7.302;2023-01-26T03:45:29;138.8;;;35.2;;
44126;SDS011;29786;50.798;7.302;2023-01-26T03:46:29;124.5;;;35.8;;
44126;SDS011;29786;50.798;7.302;2023-01-26T03:47:30;154.4;;;36.4;;
44126;SDS011;29786;50.798;7.302;2023-01-26T03:48:29;132.9;;;35.6;;
44126;SDS011;29786;50.798;7.302;2023-01-26T03:49:29;147.8;;;37.3;;
44126;SDS011;29786;50.798;7.302;2023-01-26T03:50:29;198.3;;;39.1;;
44126;SDS011;29786;50.798;7.302;2023-01-26T03:51:28;160.2;;;39;;
44126;SDS011;29786;50.798;7.302;2023-01-26T03:52:31;179.6;;;39.3;;
44126;SDS011;29786;50.798;7.302;2023-01-26T03:53:28;162.6;;;38.3;;
44126;SDS011;29786;50.798;7.302;2023-01-26T03:54:28;172.3;;;38.3;;
44126;SDS011;29786;50.798;7.302;2023-01-26T03:55:29;172.9;;;39.2;;
44126;SDS011;29786;50.798;7.302;2023-01-26T03:56:29;136;;;36.2;;
44126;SDS011;29786;50.798;7.302;2023-01-26T03:57:29;147.8;;;36.5;;
44126;SDS011;29786;50.798;7.302;2023-01-26T03:58:29;197.1;;;39.6;;
44126;SDS011;29786;50.798;7.302;2023-01-26T03:59:29;199.6;;;41.2;;
44126;SDS011;29786;50.798;7.302;2023-01-26T04:00:29;155.5;;;37.9;;
44126;SDS011;29786;50.798;7.302;2023-01-26T04:01:29;201.9;;;41;;
44126;SDS011;29786;50.798;7.302;2023-01-26T04:02:29;130.1;;;37.7;;
44126;SDS011;29786;50.798;7.302;2023-01-26T04:03:29;137.7;;;38.7;;
44126;SDS011;29786;50.798;7.302;2023-01-26T04:04:29;128.9;;;36;;
44126;SDS011;29786;50.798;7.302;2023-01-26T04:05:29;143.5;;;37.3;;
44126;SDS011;29786;50.798;7.302;2023-01-26T04:06:28;148.1;;;36.4;;
44126;SDS011;29786;50.798;7.302;2023-01-26T04:07:28;135.2;;;38.3;;
44126;SDS011;29786;50.798;7.302;2023-01-26T04:08:29;141.4;;;37.1;;
44126;SDS011;29786;50.798;7.302;2023-01-26T04:09:29;138.2;;;36.8;;
44126;SDS011;29786;50.798;7.302;2023-01-26T04:10:29;124.8;;;34.6;;
44126;SDS011;29786;50.798;7.302;2023-01-26T04:11:29;102.8;;;32.6;;
44126;SDS011;29786;50.798;7.302;2023-01-26T04:12:29;124.7;;;35.4;;
44126;SDS011;29786;50.798;7.302;2023-01-26T04:13:29;137.6;;;37.5;;
44126;SDS011;29786;50.798;7.302;2023-01-26T04:14:29;142.3;;;37.6;;
44126;SDS011;29786;50.798;7.302;2023-01-26T04:15:29;107;;;33;;
44126;SDS011;29786;50.798;7.302;2023-01-26T04:16:29;109;;;33.5;;
44126;SDS011;29786;50.798;7.302;2023-01-26T04:17:29;108.1;;;32.7;;
44126;SDS011;29786;50.798;7.302;2023-01-26T04:18:29;102.7;;;32.7;;
44126;SDS011;29786;50.798;7.302;2023-01-26T04:19:29;104.2;;;32.2;;
44126;SDS011;29786;50.798;7.302;2023-01-26T04:20:28;91.4;;;30.9;;
44126;SDS011;29786;50.798;7.302;2023-01-26T04:21:29;102.5;;;32.2;;
44126;SDS011;29786;50.798;7.302;2023-01-26T04:22:29;98.1;;;31.7;;
44126;SDS011;29786;50.798;7.302;2023-01-26T04:23:28;90.3;;;28.9;;
44126;SDS011;29786;50.798;7.302;2023-01-26T04:24:28;119.3;;;34.6;;
44126;SDS011;29786;50.798;7.302;2023-01-26T04:25:31;86.1;;;30;;
44126;SDS011;29786;50.798;7.302;2023-01-26T04:26:30;92.1;;;30.2;;
44126;SDS011;29786;50.798;7.302;2023-01-26T04:27:29;89.1;;;29;;
44126;SDS011;29786;50.798;7.302;2023-01-26T04:28:28;93.3;;;31.2;;
44126;SDS011;29786;50.798;7.302;2023-01-26T04:29:29;76.6;;;28.3;;
44126;SDS011;29786;50.798;7.302;2023-01-26T04:30:29;84.1;;;29.5;;
44126;SDS011;29786;50.798;7.302;2023-01-26T04:31:29;104.9;;;32.6;;
44126;SDS011;29786;50.798;7.302;2023-01-26T04:32:29;101.2;;;32.3;;
44126;SDS011;29786;50.798;7.302;2023-01-26T04:33:29;101;;;32.9;;
44126;SDS011;29786;50.798;7.302;2023-01-26T04:34:28;93.3;;;33.1;;
44126;SDS011;29786;50.798;7.302;2023-01-26T04:35:28;104.7;;;34.4;;
44126;SDS011;29786;50.798;7.302;2023-01-26T04:36:29;122.6;;;35.6;;
44126;SDS011;29786;50.798;7.302;2023-01-26T04:37:29;111.4;;;34.1;;
44126;SDS011;29786;50.798;7.302;2023-01-26T04:38:28;108.7;;;33.5;;
44126;SDS011;29786;50.798;7.302;2023-01-26T04:39:29;124.7;;;35.3;;
44126;SDS011;29786;50.798;7.302;2023-01-26T04:40:28;306.4;;;40.9;;
44126;SDS011;29786;50.798;7.302;2023-01-26T04:41:30;162.2;;;36.9;;
44126;SDS011;29786;50.798;7.302;2023-01-26T04:42:29;131.8;;;35.9;;
44126;SDS011;29786;50.798;7.302;2023-01-26T04:43:29;165.1;;;39.2;;
44126;SDS011;29786;50.798;7.302;2023-01-26T04:44:29;418.3;;;51.6;;
44126;SDS011;29786;50.798;7.302;2023-01-26T04:45:29;162.5;;;37.3;;
44126;SDS011;29786;50.798;7.302;2023-01-26T04:46:28;121.5;;;32.8;;
44126;SDS011;29786;50.798;7.302;2023-01-26T04:47:29;90;;;29.7;;
44126;SDS011;29786;50.798;7.302;2023-01-26T04:48:29;124.8;;;35.9;;
44126;SDS011;29786;50.798;7.302;2023-01-26T04:49:28;112.3;;;33.8;;
44126;SDS011;29786;50.798;7.302;2023-01-26T04:50:29;109;;;33.3;;
44126;SDS011;29786;50.798;7.302;2023-01-26T04:51:29;94;;;31.4;;
44126;SDS011;29786;50.798;7.302;2023-01-26T04:52:29;103.8;;;29.9;;
44126;SDS011;29786;50.798;7.302;2023-01-26T04:53:30;103.9;;;31.2;;
44126;SDS011;29786;50.798;7.302;2023-01-26T04:54:28;188.2;;;37.9;;
44126;SDS011;29786;50.798;7.302;2023-01-26T04:55:29;304.6;;;45.9;;
44126;SDS011;29786;50.798;7.302;2023-01-26T04:56:30;254.3;;;41.2;;
44126;SDS011;29786;50.798;7.302;2023-01-26T04:57:28;248.9;;;43.6;;
44126;SDS011;29786;50.798;7.302;2023-01-26T04:58:29;412.1;;;51.1;;
44126;SDS011;29786;50.798;7.302;2023-01-26T04:59:28;375.1;;;45.4;;
44126;SDS011;29786;50.798;7.302;2023-01-26T05:00:29;524.7;;;53.6;;
44126;SDS011;29786;50.798;7.302;2023-01-26T05:01:29;254.8;;;45.4;;
44126;SDS011;29786;50.798;7.302;2023-01-26T05:02:29;230;;;46.4;;
44126;SDS011;29786;50.798;7.302;2023-01-26T05:03:29;259.6;;;43.3;;
44126;SDS011;29786;50.798;7.302;2023-01-26T05:04:29;504.6;;;52.5;;
44126;SDS011;29786;50.798;7.302;2023-01-26T05:05:29;405.6;;;48.2;;
44126;SDS011;29786;50.798;7.302;2023-01-26T05:06:29;420.3;;;51.9;;
44126;SDS011;29786;50.798;7.302;2023-01-26T05:07:29;443.6;;;48.8;;
44126;SDS011;29786;50.798;7.302;2023-01-26T05:08:29;593.1;;;59.1;;
44126;SDS011;29786;50.798;7.302;2023-01-26T05:09:29;175.7;;;39;;
44126;SDS011;29786;50.798;7.302;2023-01-26T05:10:28;227.4;;;38.5;;
44126;SDS011;29786;50.798;7.302;2023-01-26T05:11:29;458;;;52.6;;
44126;SDS011;29786;50.798;7.302;2023-01-26T05:12:28;183.8;;;39.9;;
44126;SDS011;29786;50.798;7.302;2023-01-26T05:13:29;267.2;;;45.7;;
44126;SDS011;29786;50.798;7.302;2023-01-26T05:14:29;487.6;;;52.3;;
44126;SDS011;29786;50.798;7.302;2023-01-26T05:15:29;300.1;;;42.6;;
44126;SDS011;29786;50.798;7.302;2023-01-26T05:16:29;164.9;;;39.3;;
44126;SDS011;29786;50.798;7.302;2023-01-26T05:17:29;598.8;;;56.4;;
44126;SDS011;29786;50.798;7.302;2023-01-26T05:18:29;531.7;;;53.5;;
44126;SDS011;29786;50.798;7.302;2023-01-26T05:19:28;804.1;;;72.2;;
44126;SDS011;29786;50.798;7.302;2023-01-26T05:20:29;574.7;;;57.6;;
44126;SDS011;29786;50.798;7.302;2023-01-26T05:21:28;548.2;;;54.5;;
44126;SDS011;29786;50.798;7.302;2023-01-26T05:22:29;659.5;;;61;;
44126;SDS011;29786;50.798;7.302;2023-01-26T05:23:29;435.2;;;50.1;;
44126;SDS011;29786;50.798;7.302;2023-01-26T05:24:29;740.9;;;67.1;;
44126;SDS011;29786;50.798;7.302;2023-01-26T05:25:28;722.3;;;64;;
44126;SDS011;29786;50.798;7.302;2023-01-26T05:26:28;708.1;;;65.7;;
44126;SDS011;29786;50.798;7.302;2023-01-26T05:27:29;465.5;;;51.3;;
44126;SDS011;29786;50.798;7.302;2023-01-26T05:28:29;654.8;;;61;;
44126;SDS011;29786;50.798;7.302;2023-01-26T05:29:29;692.6;;;65.2;;
44126;SDS011;29786;50.798;7.302;2023-01-26T05:30:29;790.2;;;70.7;;
44126;SDS011;29786;50.798;7.302;2023-01-26T05:31:29;731;;;68.8;;
44126;SDS011;29786;50.798;7.302;2023-01-26T05:32:29;589.6;;;56.6;;
44126;SDS011;29786;50.798;7.302;2023-01-26T05:33:29;948.6;;;77.7;;
44126;SDS011;29786;50.798;7.302;2023-01-26T05:34:28;851.3;;;75.3;;
44126;SDS011;29786;50.798;7.302;2023-01-26T05:35:29;1032.4;;;81.6;;
44126;SDS011;29786;50.798;7.302;2023-01-26T05:36:29;794.9;;;66.9;;
44126;SDS011;29786;50.798;7.302;2023-01-26T05:37:29;972.5;;;86.2;;
44126;SDS011;29786;50.798;7.302;2023-01-26T05:38:29;623.4;;;62.9;;
44126;SDS011;29786;50.798;7.302;2023-01-26T05:39:28;777.8;;;68.6;;
44126;SDS011;29786;50.798;7.302;2023-01-26T05:40:29;919.7;;;78.9;;
44126;SDS011;29786;50.798;7.302;2023-01-26T05:41:28;441;;;51;;
44126;SDS011;29786;50.798;7.302;2023-01-26T05:42:29;814.7;;;76.6;;
44126;SDS011;29786;50.798;7.302;2023-01-26T05:43:29;676.9;;;67.7;;
44126;SDS011;29786;50.798;7.302;2023-01-26T05:44:28;623.9;;;64.5;;
44126;SDS011;29786;50.798;7.302;2023-01-26T05:45:29;569.4;;;63;;
44126;SDS011;29786;50.798;7.302;2023-01-26T05:46:29;470;;;54.4;;
44126;SDS011;29786;50.798;7.302;2023-01-26T05:47:28;519.4;;;58.4;;
44126;SDS011;29786;50.798;7.302;2023-01-26T05:48:29;447.5;;;53.7;;
44126;SDS011;29786;50.798;7.302;2023-01-26T05:49:29;589.3;;;61.1;;
44126;SDS011;29786;50.798;7.302;2023-01-26T05:50:28;328.7;;;48.1;;
44126;SDS011;29786;50.798;7.302;2023-01-26T05:51:29;465.2;;;56.5;;
44126;SDS011;29786;50.798;7.302;2023-01-26T05:52:28;444.5;;;57;;
44126;SDS011;29786;50.798;7.302;2023-01-26T05:53:30;421.7;;;51.6;;
44126;SDS011;29786;50.798;7.302;2023-01-26T05:54:28;385.2;;;50.8;;
44126;SDS011;29786;50.798;7.302;2023-01-26T05:55:29;298.4;;;47.5;;
44126;SDS011;29786;50.798;7.302;2023-01-26T05:56:29;565.6;;;63;;
44126;SDS011;29786;50.798;7.302;2023-01-26T05:57:29;563.9;;;60;;
44126;SDS011;29786;50.798;7.302;2023-01-26T05:58:27;547.3;;;59.6;;
44126;SDS011;29786;50.798;7.302;2023-01-26T05:59:29;422.8;;;53.7;;